createdAt,value
2022-08-02T00:01:03.947Z,1.67
2022-08-02T00:03:33.860Z,1.80
2022-08-02T00:06:04.294Z,1.48
2022-08-02T00:08:33.379Z,1.80
2022-08-02T00:11:01.605Z,1.77
2022-08-02T00:13:30.050Z,1.80
2022-08-02T00:15:58.359Z,1.60
2022-08-02T00:18:26.602Z,1.40
2022-08-02T00:20:54.840Z,1.60
2022-08-02T00:23:25.133Z,1.70
2022-08-02T00:25:54.898Z,1.70
2022-08-02T00:28:27.246Z,1.40
2022-08-02T00:30:57.309Z,1.83
2022-08-02T00:34:26.938Z,1.73
2022-08-02T00:36:13.923Z,1.58
2022-08-02T00:38:43.575Z,1.60
2022-08-02T00:41:18.994Z,1.60
2022-08-02T00:43:48.804Z,1.90
2022-08-02T00:46:18.425Z,1.42
2022-08-02T00:48:46.835Z,1.55
2022-08-02T00:51:17.633Z,1.55
2022-08-02T00:53:47.382Z,1.70
2022-08-02T00:56:15.633Z,1.58
2022-08-02T00:58:43.890Z,1.73
2022-08-02T01:01:12.151Z,1.52
2022-08-02T01:03:40.453Z,1.80
2022-08-02T01:06:11.430Z,1.90
2022-08-02T01:08:40.551Z,1.55
2022-08-02T01:11:10.150Z,1.17
2022-08-02T01:13:38.435Z,1.55
2022-08-02T01:16:16.069Z,1.50
2022-08-02T01:18:50.311Z,1.58
2022-08-02T01:21:54.437Z,1.50
2022-08-02T01:24:49.427Z,1.58
2022-08-02T01:27:35.155Z,1.70
2022-08-02T01:30:11.417Z,1.77
2022-08-02T01:32:52.098Z,1.83
2022-08-02T01:35:28.247Z,1.70
2022-08-02T01:38:00.286Z,1.77
2022-08-02T01:40:32.191Z,1.40
2022-08-02T01:43:01.940Z,1.40
2022-08-02T01:45:36.889Z,1.52
2022-08-02T01:48:07.140Z,1.60
2022-08-02T01:50:38.429Z,1.58
2022-08-02T01:53:09.826Z,1.33
2022-08-02T01:55:58.183Z,1.63
2022-08-02T01:58:31.420Z,1.80
2022-08-02T02:01:02.158Z,1.30
2022-08-02T02:03:33.714Z,1.40
2022-08-02T02:06:05.488Z,1.55
2022-08-02T02:08:38.362Z,1.30
2022-08-02T02:12:05.820Z,1.50
2022-08-02T02:13:59.266Z,1.60
2022-08-02T02:16:31.982Z,1.42
2022-08-02T02:19:07.153Z,1.80
2022-08-02T02:21:35.401Z,1.45
2022-08-02T02:24:08.264Z,1.50
2022-08-02T02:26:52.043Z,1.48
2022-08-02T02:29:22.947Z,1.60
2022-08-02T02:31:56.063Z,1.63
2022-08-02T02:34:29.688Z,1.60
2022-08-02T02:37:03.003Z,1.40
2022-08-02T02:39:33.531Z,1.40
2022-08-02T02:42:05.230Z,1.50
2022-08-02T02:44:34.587Z,1.60
2022-08-02T02:47:04.937Z,1.63
2022-08-02T02:49:36.260Z,1.40
2022-08-02T02:52:05.877Z,1.52
2022-08-02T02:54:35.678Z,1.50
2022-08-02T02:57:06.986Z,1.60
2022-08-02T02:59:36.568Z,1.35
2022-08-02T03:02:15.515Z,1.35
2022-08-02T03:04:57.101Z,1.73
2022-08-02T03:07:27.368Z,1.65
2022-08-02T03:09:56.044Z,1.50
2022-08-02T03:12:31.334Z,1.55
2022-08-02T03:15:04.128Z,1.80
2022-08-02T03:17:41.732Z,1.80
2022-08-02T03:20:13.568Z,1.60
2022-08-02T03:22:42.663Z,1.38
2022-08-02T03:25:12.188Z,1.60
2022-08-02T03:27:41.257Z,1.48
2022-08-02T03:30:12.639Z,1.52
2022-08-02T03:32:45.398Z,1.40
2022-08-02T03:35:21.283Z,1.75
2022-08-02T03:37:53.982Z,1.40
2022-08-02T03:40:23.140Z,1.42
2022-08-02T03:42:52.144Z,1.77
2022-08-02T03:45:21.091Z,1.58
2022-08-02T03:47:51.675Z,1.50
2022-08-02T03:50:22.896Z,1.52
2022-08-02T03:52:51.964Z,1.23
2022-08-02T03:55:20.362Z,1.27
2022-08-02T03:57:49.308Z,1.33
2022-08-02T04:00:23.174Z,1.73
2022-08-02T04:02:53.250Z,1.65
2022-08-02T04:05:22.160Z,1.40
2022-08-02T04:08:33.000Z,1.38
2022-08-02T04:10:54.041Z,1.58
2022-08-02T04:13:24.845Z,1.40
2022-08-02T04:16:00.926Z,1.40
2022-08-02T04:18:38.220Z,1.92
2022-08-02T04:21:07.532Z,1.48
2022-08-02T04:23:37.770Z,1.63
2022-08-02T04:26:08.652Z,1.27
2022-08-02T04:28:39.912Z,1.50
2022-08-02T04:31:08.919Z,1.33
2022-08-02T04:33:39.242Z,2.00
2022-08-02T04:36:08.633Z,1.77
2022-08-02T04:38:36.907Z,1.55
2022-08-02T04:41:05.310Z,1.70
2022-08-02T04:43:33.524Z,1.70
2022-08-02T04:46:02.813Z,1.77
2022-08-02T04:48:31.934Z,1.40
2022-08-02T04:51:01.950Z,1.77
2022-08-02T04:53:30.223Z,2.17
2022-08-02T04:55:58.535Z,1.85
2022-08-02T04:58:42.006Z,1.48
2022-08-02T05:01:10.298Z,1.67
2022-08-02T05:03:38.865Z,1.95
2022-08-02T05:06:18.657Z,1.88
2022-08-02T05:08:52.497Z,1.90
2022-08-02T05:11:22.357Z,1.73
2022-08-02T05:14:02.502Z,1.70
2022-08-02T05:16:32.007Z,1.58
2022-08-02T05:19:01.073Z,1.90
2022-08-02T05:21:31.355Z,1.58
2022-08-02T05:23:59.701Z,1.60
2022-08-02T05:26:27.938Z,1.83
2022-08-02T05:28:56.239Z,1.65
2022-08-02T05:31:24.567Z,2.03
2022-08-02T05:33:52.841Z,1.80
2022-08-02T05:36:21.597Z,1.60
2022-08-02T05:38:51.949Z,1.60
2022-08-02T05:41:21.166Z,1.80
2022-08-02T05:43:49.606Z,1.73
2022-08-02T05:46:17.937Z,1.80
2022-08-02T05:48:46.577Z,1.80
2022-08-02T05:51:24.265Z,1.83
2022-08-02T05:54:04.337Z,1.77
2022-08-02T05:56:38.529Z,1.75
2022-08-02T05:59:13.720Z,1.67
2022-08-02T06:01:44.910Z,1.63
2022-08-02T06:04:24.455Z,1.83
2022-08-02T06:06:57.061Z,1.95
2022-08-02T06:09:28.164Z,1.92
2022-08-02T06:12:02.831Z,2.17
2022-08-02T06:14:33.865Z,1.88
2022-08-02T06:17:05.194Z,2.17
2022-08-02T06:19:47.061Z,1.95
2022-08-02T06:22:31.642Z,2.00
2022-08-02T06:25:11.757Z,2.20
2022-08-02T06:27:56.958Z,2.30
2022-08-02T06:30:25.560Z,2.30
2022-08-02T06:32:54.653Z,2.08
2022-08-02T06:35:23.457Z,2.13
2022-08-02T06:37:58.806Z,2.03
2022-08-02T06:40:37.430Z,2.42
2022-08-02T06:43:13.880Z,2.10
2022-08-02T06:45:42.273Z,2.08
2022-08-02T06:48:11.521Z,2.05
2022-08-02T06:50:42.064Z,2.08
2022-08-02T06:53:11.797Z,2.03
2022-08-02T06:55:43.720Z,1.90
2022-08-02T06:58:13.533Z,2.25
2022-08-02T07:00:43.814Z,2.05
2022-08-02T07:03:12.300Z,1.95
2022-08-02T07:05:41.473Z,2.50
2022-08-02T07:08:09.829Z,2.58
2022-08-02T07:10:38.051Z,1.90
2022-08-02T07:13:07.712Z,2.08
2022-08-02T07:15:36.032Z,2.28
2022-08-02T07:18:04.661Z,2.30
2022-08-02T07:20:33.444Z,2.20
2022-08-02T07:23:01.657Z,2.47
2022-08-02T07:26:01.709Z,2.40
2022-08-02T07:28:24.225Z,2.53
2022-08-02T07:30:53.027Z,2.30
2022-08-02T07:33:38.732Z,2.38
2022-08-02T07:36:09.806Z,2.40
2022-08-02T07:38:45.729Z,2.58
2022-08-02T07:41:15.176Z,2.33
2022-08-02T07:43:44.994Z,2.60
2022-08-02T07:46:13.287Z,2.80
2022-08-02T07:48:41.578Z,2.30
2022-08-02T07:51:12.976Z,2.53
2022-08-02T07:53:50.869Z,2.55
2022-08-02T07:56:30.256Z,2.72
2022-08-02T07:58:59.849Z,2.20
2022-08-02T08:01:28.171Z,2.80
2022-08-02T08:03:57.197Z,3.30
2022-08-02T08:06:29.020Z,3.22
2022-08-02T08:08:57.619Z,3.13
2022-08-02T08:11:26.070Z,3.00
2022-08-02T08:13:54.553Z,3.03
2022-08-02T08:16:26.205Z,3.28
2022-08-02T08:18:55.006Z,3.20
2022-08-02T08:21:23.638Z,3.50
2022-08-02T08:23:51.954Z,4.22
2022-08-02T08:26:20.160Z,3.25
2022-08-02T08:28:48.436Z,2.97
2022-08-02T08:31:16.868Z,3.22
2022-08-02T08:33:46.507Z,3.50
2022-08-02T08:36:16.607Z,2.88
2022-08-02T08:38:45.067Z,3.53
2022-08-02T08:41:13.309Z,3.92
2022-08-02T08:43:41.651Z,2.72
2022-08-02T08:46:15.173Z,3.13
2022-08-02T08:48:48.039Z,3.83
2022-08-02T08:51:20.919Z,3.42
2022-08-02T08:53:50.799Z,3.58
2022-08-02T08:56:20.046Z,3.78
2022-08-02T08:58:48.752Z,3.67
2022-08-02T09:01:17.747Z,3.28
2022-08-02T09:03:47.664Z,3.22
2022-08-02T09:06:16.080Z,2.88
2022-08-02T09:08:44.648Z,3.35
2022-08-02T09:11:18.065Z,2.88
2022-08-02T09:13:53.064Z,3.05
2022-08-02T09:16:35.236Z,3.47
2022-08-02T09:19:20.527Z,2.97
2022-08-02T09:21:51.564Z,3.22
2022-08-02T09:24:22.471Z,3.00
2022-08-02T09:26:52.113Z,3.55
2022-08-02T09:29:24.669Z,3.20
2022-08-02T09:31:53.569Z,3.42
2022-08-02T09:34:23.488Z,3.08
2022-08-02T09:36:54.395Z,2.67
2022-08-02T09:39:26.433Z,3.00
2022-08-02T09:42:10.519Z,2.95
2022-08-02T09:44:39.149Z,3.33
2022-08-02T09:47:17.574Z,3.00
2022-08-02T09:49:52.195Z,2.60
2022-08-02T09:52:37.209Z,3.05
2022-08-02T09:55:13.041Z,2.80
2022-08-02T09:57:41.627Z,3.40
2022-08-02T10:00:15.068Z,3.28
2022-08-02T10:03:08.249Z,2.50
2022-08-02T10:05:55.754Z,2.40
2022-08-02T10:08:26.934Z,3.35
2022-08-02T10:11:01.364Z,2.80
2022-08-02T10:13:31.938Z,2.53
2022-08-02T10:16:00.369Z,2.80
2022-08-02T10:18:38.699Z,2.80
2022-08-02T10:21:29.488Z,2.45
2022-08-02T10:24:06.800Z,3.00
2022-08-02T10:26:35.918Z,2.42
2022-08-02T10:29:04.811Z,2.78
2022-08-02T10:31:40.119Z,2.63
2022-08-02T10:34:12.720Z,2.65
2022-08-02T10:36:43.836Z,2.80
2022-08-02T10:39:12.371Z,2.65
2022-08-02T10:41:46.235Z,2.58
2022-08-02T10:44:27.326Z,2.65
2022-08-02T10:47:26.703Z,2.78
2022-08-02T10:49:57.208Z,2.30
2022-08-02T10:52:27.876Z,2.60
2022-08-02T10:54:59.330Z,2.60
2022-08-02T10:57:29.555Z,2.17
2022-08-02T11:00:00.151Z,2.20
2022-08-02T11:02:38.255Z,2.15
2022-08-02T11:05:13.929Z,2.70
2022-08-02T11:07:49.217Z,2.13
2022-08-02T11:10:38.533Z,2.30
2022-08-02T11:13:10.823Z,2.55
2022-08-02T11:16:03.692Z,2.35
2022-08-02T11:19:07.122Z,2.33
2022-08-02T11:21:36.669Z,2.60
2022-08-02T11:24:29.540Z,1.95
2022-08-02T11:26:58.996Z,2.30
2022-08-02T11:29:38.986Z,2.53
2022-08-02T11:32:09.608Z,2.38
2022-08-02T11:34:41.094Z,2.50
2022-08-02T11:37:10.295Z,2.53
2022-08-02T11:39:39.913Z,2.35
2022-08-02T11:42:09.144Z,1.85
2022-08-02T11:44:44.742Z,2.55
2022-08-02T11:47:14.135Z,2.33
2022-08-02T11:49:44.779Z,2.15
2022-08-02T11:52:13.262Z,2.05
2022-08-02T11:54:44.620Z,1.90
2022-08-02T11:57:22.061Z,2.20
2022-08-02T11:59:52.760Z,2.08
2022-08-02T12:02:22.980Z,2.10
2022-08-02T12:04:58.492Z,1.92
2022-08-02T12:07:34.265Z,2.03
2022-08-02T12:10:08.717Z,2.00
2022-08-02T12:12:50.133Z,2.00
2022-08-02T12:15:35.142Z,2.10
2022-08-02T12:18:22.111Z,2.17
2022-08-02T12:20:50.463Z,1.98
2022-08-02T12:23:18.804Z,2.13
2022-08-02T12:26:00.890Z,2.10
2022-08-02T12:28:29.160Z,2.10
2022-08-02T12:31:00.372Z,2.30
2022-08-02T12:33:31.068Z,2.10
2022-08-02T12:35:59.278Z,2.05
2022-08-02T12:38:27.605Z,2.28
2022-08-02T12:40:57.370Z,1.95
2022-08-02T12:43:26.040Z,2.05
2022-08-02T12:45:57.478Z,2.10
2022-08-02T12:48:37.833Z,2.20
2022-08-02T12:51:56.391Z,1.98
2022-08-02T12:54:18.018Z,1.90
2022-08-02T12:56:48.754Z,2.17
2022-08-02T12:59:17.555Z,2.13
2022-08-02T13:01:46.640Z,1.98
2022-08-02T13:04:16.606Z,1.88
2022-08-02T13:06:45.702Z,1.83
2022-08-02T13:09:17.340Z,2.00
2022-08-02T13:11:47.665Z,1.77
2022-08-02T13:14:16.845Z,2.20
2022-08-02T13:16:47.084Z,1.80
2022-08-02T13:19:16.270Z,1.90
2022-08-02T13:22:02.739Z,1.88
2022-08-02T13:24:39.942Z,1.85
2022-08-02T13:27:11.767Z,1.77
2022-08-02T13:29:40.014Z,1.80
2022-08-02T13:32:08.370Z,2.42
2022-08-02T13:34:37.011Z,1.90
2022-08-02T13:37:05.812Z,2.10
2022-08-02T13:39:34.078Z,1.98
2022-08-02T13:42:02.303Z,1.70
2022-08-02T13:44:31.921Z,1.60
2022-08-02T13:47:00.328Z,1.88
2022-08-02T13:49:50.841Z,1.50
2022-08-02T13:52:17.095Z,1.92
2022-08-02T13:54:45.647Z,1.80
2022-08-02T13:57:13.874Z,1.60
2022-08-02T13:59:58.194Z,1.88
2022-08-02T14:02:52.319Z,1.70
2022-08-02T14:05:38.675Z,1.85
2022-08-02T14:08:13.201Z,1.83
2022-08-02T14:10:46.432Z,1.50
2022-08-02T14:13:14.792Z,1.98
2022-08-02T14:15:44.832Z,1.58
2022-08-02T14:18:14.740Z,1.80
2022-08-02T14:20:43.420Z,1.90
2022-08-02T14:23:11.809Z,2.05
2022-08-02T14:25:40.181Z,1.90
2022-08-02T14:28:08.653Z,1.80
2022-08-02T14:30:37.063Z,1.73
2022-08-02T14:33:06.704Z,1.55
2022-08-02T14:35:35.389Z,1.60
2022-08-02T14:38:03.586Z,1.70
2022-08-02T14:40:32.333Z,1.88
2022-08-02T14:43:01.376Z,1.58
2022-08-02T14:45:40.455Z,1.75
2022-08-02T14:48:12.405Z,1.88
2022-08-02T14:50:41.084Z,1.60
2022-08-02T14:53:12.716Z,1.50
2022-08-02T14:55:42.786Z,1.60
2022-08-02T14:58:11.399Z,1.58
2022-08-02T15:00:41.649Z,1.70
2022-08-02T15:03:13.861Z,1.67
2022-08-02T15:05:42.172Z,1.70
2022-08-02T15:08:10.378Z,1.70
2022-08-02T15:10:38.652Z,1.77
2022-08-02T15:13:09.424Z,1.80
2022-08-02T15:15:43.411Z,1.67
2022-08-02T15:18:14.899Z,1.90
2022-08-02T15:20:49.238Z,1.60
2022-08-02T15:23:37.204Z,1.52
2022-08-02T15:26:06.078Z,1.70
2022-08-02T15:28:34.460Z,2.00
2022-08-02T15:31:02.755Z,1.67
2022-08-02T15:33:32.366Z,1.73
2022-08-02T15:36:01.031Z,1.80
2022-08-02T15:38:29.281Z,1.50
2022-08-02T15:40:57.566Z,1.50
2022-08-02T15:43:26.102Z,1.73
2022-08-02T15:45:54.382Z,1.70
2022-08-02T15:48:22.860Z,1.63
2022-08-02T15:50:52.567Z,1.75
2022-08-02T15:53:20.793Z,1.73
2022-08-02T15:56:04.046Z,1.60
2022-08-02T15:58:42.534Z,1.80
2022-08-02T16:01:13.170Z,1.80
2022-08-02T16:03:50.592Z,1.73
2022-08-02T16:06:20.498Z,1.65
2022-08-02T16:08:53.687Z,1.83
2022-08-02T16:11:24.424Z,1.63
2022-08-02T16:13:54.681Z,1.60
2022-08-02T16:16:24.284Z,1.50
2022-08-02T16:18:52.661Z,1.73
2022-08-02T16:21:24.589Z,1.80
2022-08-02T16:23:58.575Z,1.70
2022-08-02T16:26:31.605Z,1.63
2022-08-02T16:29:01.478Z,1.67
2022-08-02T16:31:30.229Z,1.50
2022-08-02T16:33:58.479Z,1.77
2022-08-02T16:36:29.017Z,1.60
2022-08-02T16:38:58.064Z,1.65
2022-08-02T16:41:51.873Z,1.63
2022-08-02T16:44:15.772Z,1.60
2022-08-02T16:46:45.698Z,1.38
2022-08-02T16:50:05.217Z,1.60
2022-08-02T16:52:03.964Z,3.10
2022-08-02T16:54:32.355Z,8.18
2022-08-02T16:57:00.616Z,2.25
2022-08-02T16:59:41.898Z,2.45
2022-08-02T17:02:17.945Z,2.15
2022-08-02T17:04:47.499Z,1.73
2022-08-02T17:08:10.399Z,1.65
2022-08-02T17:10:09.234Z,1.80
2022-08-02T17:12:39.808Z,1.98
2022-08-02T17:16:16.439Z,1.60
2022-08-02T17:18:00.346Z,1.55
2022-08-02T17:20:29.117Z,1.83
2022-08-02T17:23:00.613Z,1.67
2022-08-02T17:25:31.835Z,1.50
2022-08-02T17:28:00.480Z,1.58
2022-08-02T17:30:29.764Z,1.70
2022-08-02T17:32:59.329Z,1.88
2022-08-02T17:35:51.997Z,1.75
2022-08-02T17:38:26.563Z,1.50
2022-08-02T17:40:55.981Z,1.58
2022-08-02T17:43:29.183Z,2.10
2022-08-02T17:46:02.229Z,1.95
2022-08-02T17:48:54.832Z,1.80
2022-08-02T17:51:33.224Z,1.85
2022-08-02T17:54:14.565Z,1.90
2022-08-02T17:56:48.180Z,1.55
2022-08-02T17:59:20.604Z,1.55
2022-08-02T18:01:54.271Z,1.75
2022-08-02T18:07:17.387Z,1.60
2022-08-02T18:09:55.131Z,1.40
2022-08-02T18:12:23.346Z,1.45
2022-08-02T18:14:52.513Z,1.70
2022-08-02T18:17:20.838Z,1.60
2022-08-02T18:19:53.983Z,1.45
2022-08-02T18:22:33.622Z,1.67
2022-08-02T18:25:09.554Z,1.63
2022-08-02T18:27:38.920Z,1.80
2022-08-02T18:30:09.289Z,1.60
2022-08-02T18:33:59.212Z,1.58
2022-08-02T18:35:29.451Z,1.52
2022-08-02T18:38:03.642Z,1.70
2022-08-02T18:40:33.906Z,1.30
2022-08-02T18:43:03.419Z,1.60
2022-08-02T18:45:36.838Z,1.50
2022-08-02T18:48:23.959Z,1.80
2022-08-02T18:50:58.302Z,1.48
2022-08-02T18:53:28.242Z,1.73
2022-08-02T18:56:20.130Z,1.65
2022-08-02T18:58:54.457Z,1.55
2022-08-02T19:01:33.672Z,1.60
2022-08-02T19:04:04.744Z,1.70
2022-08-02T19:06:33.074Z,1.70
2022-08-02T19:09:11.212Z,1.65
2022-08-02T19:11:47.327Z,1.60
2022-08-02T19:14:27.862Z,1.55
2022-08-02T19:16:57.951Z,1.60
2022-08-02T19:19:29.124Z,1.50
2022-08-02T19:22:17.674Z,2.45
2022-08-02T19:24:47.809Z,1.88
2022-08-02T19:27:25.585Z,1.90
2022-08-02T19:29:54.632Z,1.50
2022-08-02T19:32:42.237Z,1.85
2022-08-02T19:35:19.630Z,1.80
2022-08-02T19:38:07.189Z,1.70
2022-08-02T19:40:35.744Z,2.00
2022-08-02T19:44:27.559Z,1.70
2022-08-02T19:45:57.025Z,1.60
2022-08-02T19:48:26.971Z,1.80
2022-08-02T19:51:00.474Z,1.70
2022-08-02T19:53:46.910Z,1.58
2022-08-02T19:56:21.184Z,1.85
2022-08-02T19:58:57.624Z,1.90
2022-08-02T20:01:38.709Z,2.00
2022-08-02T20:04:13.094Z,1.60
2022-08-02T20:06:45.936Z,1.77
2022-08-02T20:09:17.152Z,1.95
2022-08-02T20:11:54.046Z,1.83
2022-08-02T20:14:26.857Z,1.98
2022-08-02T20:16:57.098Z,1.83
2022-08-02T20:19:29.067Z,1.85
2022-08-02T20:22:00.335Z,1.80
2022-08-02T20:24:29.661Z,1.90
2022-08-02T20:26:59.029Z,1.77
2022-08-02T20:29:43.427Z,1.95
2022-08-02T20:32:22.902Z,1.58
2022-08-02T20:34:52.415Z,1.73
2022-08-02T20:37:59.497Z,1.73
2022-08-02T20:40:16.881Z,1.80
2022-08-02T20:42:47.878Z,1.83
2022-08-02T20:45:18.085Z,1.90
2022-08-02T20:47:49.746Z,1.58
2022-08-02T20:50:38.511Z,1.52
2022-08-02T20:53:08.149Z,1.73
2022-08-02T20:55:55.506Z,1.75
2022-08-02T20:58:27.246Z,1.92
2022-08-02T21:00:59.776Z,1.95
2022-08-02T21:03:39.102Z,1.80
2022-08-02T21:06:09.794Z,1.60
2022-08-02T21:08:38.202Z,2.10
2022-08-02T21:11:09.395Z,1.98
2022-08-02T21:13:46.716Z,1.70
2022-08-02T21:16:30.635Z,1.77
2022-08-02T21:19:00.258Z,2.38
2022-08-02T21:21:29.775Z,1.80
2022-08-02T21:23:59.168Z,1.70
2022-08-02T21:26:31.024Z,1.75
2022-08-02T21:29:03.580Z,1.55
2022-08-02T21:31:36.108Z,1.50
2022-08-02T21:34:07.620Z,1.80
2022-08-02T21:36:51.076Z,1.90
2022-08-02T21:39:20.396Z,1.75
2022-08-02T21:41:49.387Z,1.80
2022-08-02T21:44:19.415Z,2.08
2022-08-02T21:46:50.966Z,1.83
2022-08-02T21:49:20.502Z,1.77
2022-08-02T21:54:39.810Z,1.65
2022-08-02T21:57:15.608Z,2.10
2022-08-02T21:59:46.260Z,1.98
2022-08-02T22:02:31.066Z,1.90
2022-08-02T22:04:59.426Z,1.80
2022-08-02T22:07:38.438Z,1.60
2022-08-02T22:10:09.729Z,1.58
2022-08-02T22:12:38.098Z,1.70
2022-08-02T22:15:10.554Z,1.65
2022-08-02T22:17:53.625Z,1.80
2022-08-02T22:20:29.142Z,2.00
2022-08-02T22:22:57.608Z,2.00
2022-08-02T22:25:31.219Z,1.90
2022-08-02T22:28:38.404Z,1.95
2022-08-02T22:30:56.989Z,1.58
2022-08-02T22:33:47.167Z,2.22
2022-08-02T22:36:30.356Z,1.77
2022-08-02T22:38:59.176Z,1.88
2022-08-02T22:42:02.050Z,1.73
2022-08-02T22:44:18.418Z,2.00
2022-08-02T22:46:50.104Z,1.60
2022-08-02T22:49:38.738Z,1.90
2022-08-02T22:52:08.761Z,1.90
2022-08-02T22:54:39.281Z,2.08
2022-08-02T22:57:11.472Z,2.28
2022-08-02T22:59:12.445Z,2.03
2022-08-02T22:59:41.078Z,1.80
2022-08-02T23:02:10.422Z,1.80
2022-08-02T23:04:40.213Z,1.70
2022-08-02T23:07:08.482Z,2.20
2022-08-02T23:09:36.885Z,2.00
2022-08-02T23:12:06.150Z,2.13
2022-08-02T23:14:34.473Z,1.80
2022-08-02T23:17:20.379Z,2.03
2022-08-02T23:19:53.068Z,2.00
2022-08-02T23:22:24.197Z,1.83
2022-08-02T23:24:59.660Z,1.58
2022-08-02T23:27:28.196Z,1.90
2022-08-02T23:29:56.468Z,1.85
2022-08-02T23:32:26.163Z,1.85
2022-08-02T23:34:56.675Z,1.70
2022-08-02T23:37:25.929Z,2.00
2022-08-02T23:39:54.225Z,1.90
2022-08-02T23:42:23.398Z,2.08
2022-08-02T23:44:51.852Z,2.03
2022-08-02T23:47:20.782Z,1.95
2022-08-02T23:49:49.328Z,2.05
2022-08-02T23:52:19.351Z,2.08
2022-08-02T23:54:47.687Z,1.92
2022-08-02T23:57:19.783Z,1.98
2022-08-02T23:59:51.629Z,2.40
